createdAt,value
2022-09-01T00:00:39.084Z,13.74
2022-09-01T00:05:44.733Z,13.60
2022-09-01T00:10:50.068Z,13.47
2022-09-01T00:15:54.617Z,13.42
2022-09-01T00:20:59.708Z,13.46
2022-09-01T00:26:06.298Z,13.46
2022-09-01T00:31:11.195Z,13.39
2022-09-01T00:36:15.433Z,13.53
2022-09-01T00:41:22.856Z,13.75
2022-09-01T00:46:28.963Z,13.81
2022-09-01T00:51:35.851Z,13.67
2022-09-01T00:56:46.501Z,13.67
2022-09-01T01:01:52.147Z,13.66
2022-09-01T01:07:01.897Z,13.79
2022-09-01T01:12:13.862Z,13.80
2022-09-01T01:17:18.281Z,13.81
2022-09-01T01:22:46.744Z,14.04
2022-09-01T01:27:52.588Z,14.13
2022-09-01T01:32:57.965Z,14.11
2022-09-01T01:38:08.054Z,14.17
2022-09-01T01:43:21.987Z,14.11
2022-09-01T01:48:28.379Z,14.06
2022-09-01T01:53:33.738Z,13.86
2022-09-01T01:58:39.834Z,13.68
2022-09-01T02:03:48.408Z,13.45
2022-09-01T02:08:56.746Z,13.37
2022-09-01T02:14:02.990Z,13.39
2022-09-01T02:19:10.131Z,13.34
2022-09-01T02:24:15.735Z,13.33
2022-09-01T02:29:25.506Z,13.25
2022-09-01T02:34:30.899Z,13.34
2022-09-01T02:39:35.521Z,13.24
2022-09-01T02:44:43.591Z,13.19
2022-09-01T02:49:48.175Z,13.21
2022-09-01T02:54:52.128Z,13.28
2022-09-01T02:59:59.050Z,13.23
2022-09-01T03:05:03.751Z,13.47
2022-09-01T03:10:09.778Z,13.32
2022-09-01T03:15:15.253Z,13.00
2022-09-01T03:20:21.638Z,12.83
2022-09-01T03:25:26.274Z,12.80
2022-09-01T03:30:34.171Z,12.72
2022-09-01T03:35:38.419Z,12.72
2022-09-01T03:40:42.520Z,12.64
2022-09-01T03:45:48.277Z,12.64
2022-09-01T03:50:52.334Z,12.60
2022-09-01T03:55:57.711Z,12.65
2022-09-01T04:01:03.182Z,12.50
2022-09-01T04:06:10.586Z,12.56
2022-09-01T04:11:18.689Z,12.73
2022-09-01T04:16:45.285Z,12.83
2022-09-01T04:21:51.773Z,12.89
2022-09-01T04:26:58.537Z,13.11
2022-09-01T04:32:07.333Z,13.34
2022-09-01T04:37:18.288Z,13.56
2022-09-01T04:42:24.362Z,13.83
2022-09-01T04:47:35.478Z,14.20
2022-09-01T04:52:43.199Z,14.70
2022-09-01T04:57:58.186Z,15.07
2022-09-01T05:03:05.439Z,15.39
2022-09-01T05:08:36.273Z,15.73
2022-09-01T05:13:45.526Z,15.82
2022-09-01T05:18:54.339Z,15.98
2022-09-01T05:24:01.917Z,16.17
2022-09-01T05:29:10.875Z,16.53
2022-09-01T05:34:23.129Z,16.86
2022-09-01T05:39:27.851Z,17.21
2022-09-01T05:44:33.822Z,17.31
2022-09-01T05:49:39.587Z,17.76
2022-09-01T05:54:47.309Z,18.12
2022-09-01T05:59:54.245Z,18.18
2022-09-01T06:05:02.946Z,18.83
2022-09-01T06:10:10.116Z,19.37
2022-09-01T06:15:18.646Z,20.03
2022-09-01T06:20:28.358Z,20.49
2022-09-01T06:25:32.851Z,20.74
2022-09-01T06:30:37.635Z,20.86
2022-09-01T06:35:48.267Z,20.85
2022-09-01T06:41:01.594Z,20.55
2022-09-01T06:46:05.644Z,21.51
2022-09-01T06:51:16.075Z,21.66
2022-09-01T06:56:22.909Z,22.02
2022-09-01T07:01:29.144Z,22.57
2022-09-01T07:12:25.894Z,22.95
2022-09-01T07:17:31.773Z,23.42
2022-09-01T07:23:02.975Z,23.60
2022-09-01T07:28:02.369Z,23.52
2022-09-01T07:39:48.393Z,23.57
2022-09-01T07:44:00.999Z,24.69
2022-09-01T07:49:50.118Z,24.37
2022-09-01T07:54:49.041Z,25.04
2022-09-01T07:59:55.859Z,25.17
2022-09-01T08:05:22.460Z,25.51
2022-09-01T08:10:28.139Z,25.58
2022-09-01T08:15:40.662Z,25.73
2022-09-01T08:20:47.544Z,26.01
2022-09-01T08:26:16.664Z,25.86
2022-09-01T08:31:21.690Z,26.71
2022-09-01T08:36:26.223Z,26.46
2022-09-01T08:41:46.863Z,26.45
2022-09-01T08:46:57.234Z,26.41
2022-09-01T08:52:08.905Z,26.69
2022-09-01T08:57:21.051Z,26.40
2022-09-01T09:03:07.754Z,26.86
2022-09-01T09:08:36.512Z,27.31
2022-09-01T09:13:59.336Z,27.28
2022-09-01T09:19:07.208Z,27.80
2022-09-01T09:24:22.389Z,27.83
2022-09-01T09:29:28.433Z,28.25
2022-09-01T09:34:35.614Z,28.02
2022-09-01T09:40:20.946Z,27.37
2022-09-01T09:45:28.660Z,27.80
2022-09-01T09:50:34.822Z,28.37
2022-09-01T09:55:56.431Z,27.68
2022-09-01T10:01:05.654Z,27.28
2022-09-01T10:06:17.699Z,28.68
2022-09-01T10:11:35.838Z,28.71
2022-09-01T10:16:43.057Z,29.49
2022-09-01T10:21:49.884Z,29.25
2022-09-01T10:26:58.064Z,29.30
2022-09-01T10:32:31.338Z,25.95
2022-09-01T10:37:33.457Z,27.99
2022-09-01T10:42:37.705Z,26.92
2022-09-01T10:47:43.092Z,29.48
2022-09-01T10:52:59.218Z,29.59
2022-09-01T11:04:05.730Z,27.35
2022-09-01T11:09:22.335Z,25.99
2022-09-01T11:14:28.458Z,25.82
2022-09-01T11:19:41.237Z,25.92
2022-09-01T11:24:57.910Z,24.88
2022-09-01T11:30:10.541Z,24.47
2022-09-01T11:35:19.972Z,24.53
2022-09-01T11:40:32.434Z,27.90
2022-09-01T11:45:43.899Z,28.60
2022-09-01T11:50:59.704Z,26.36
2022-09-01T11:56:17.417Z,25.47
2022-09-01T12:01:23.523Z,25.11
2022-09-01T12:06:30.745Z,26.90
2022-09-01T12:11:37.511Z,28.26
2022-09-01T12:16:43.175Z,27.31
2022-09-01T12:21:59.967Z,25.87
2022-09-01T12:27:05.863Z,25.56
2022-09-01T12:32:11.250Z,25.93
2022-09-01T12:37:24.454Z,25.15
2022-09-01T12:42:40.888Z,24.80
2022-09-01T12:47:51.961Z,25.84
2022-09-01T12:52:59.476Z,27.00
2022-09-01T12:58:06.300Z,28.38
2022-09-01T13:03:14.552Z,28.54
2022-09-01T13:08:22.046Z,28.10
2022-09-01T13:13:27.704Z,26.72
2022-09-01T13:18:32.700Z,26.30
2022-09-01T13:23:38.069Z,26.03
2022-09-01T13:28:42.000Z,25.54
2022-09-01T13:39:11.268Z,25.12
2022-09-01T13:44:17.051Z,25.35
2022-09-01T13:54:47.858Z,25.70
2022-09-01T13:59:51.908Z,26.06
2022-09-01T14:04:56.035Z,26.32
2022-09-01T14:10:01.695Z,26.62
2022-09-01T14:15:12.356Z,26.46
2022-09-01T14:20:21.882Z,26.02
2022-09-01T14:25:27.665Z,25.46
2022-09-01T14:30:34.076Z,25.87
2022-09-01T14:35:43.682Z,25.29
2022-09-01T14:40:52.623Z,25.35
2022-09-01T14:46:06.482Z,25.04
2022-09-01T14:51:10.995Z,24.70
2022-09-01T14:56:18.388Z,24.44
2022-09-01T15:01:34.421Z,24.20
2022-09-01T15:06:38.879Z,24.04
2022-09-01T15:11:44.551Z,23.78
2022-09-01T15:16:49.645Z,23.62
2022-09-01T15:21:55.365Z,23.67
2022-09-01T15:27:00.758Z,23.49
2022-09-01T15:32:05.022Z,23.05
2022-09-01T15:37:09.148Z,22.55
2022-09-01T15:47:24.909Z,22.10
2022-09-01T15:52:30.091Z,21.99
2022-09-01T15:57:36.153Z,21.85
2022-09-01T16:02:42.087Z,21.69
2022-09-01T16:07:46.434Z,21.59
2022-09-01T16:12:52.730Z,21.49
2022-09-01T16:18:24.443Z,21.44
2022-09-01T16:23:35.206Z,21.37
2022-09-01T16:28:43.336Z,21.24
2022-09-01T16:33:51.448Z,21.10
2022-09-01T16:39:00.260Z,21.00
2022-09-01T16:44:15.736Z,20.91
2022-09-01T16:49:28.111Z,20.85
2022-09-01T16:54:43.725Z,20.83
2022-09-01T16:59:55.729Z,20.72
2022-09-01T17:05:04.515Z,20.73
2022-09-01T17:10:20.091Z,20.69
2022-09-01T17:15:40.112Z,20.61
2022-09-01T17:20:54.907Z,20.51
2022-09-01T17:26:05.790Z,20.38
2022-09-01T17:31:17.134Z,20.29
2022-09-01T17:36:46.609Z,20.19
2022-09-01T17:41:57.213Z,20.14
2022-09-01T17:47:12.707Z,20.13
2022-09-01T17:52:27.226Z,20.06
2022-09-01T17:57:38.984Z,20.03
2022-09-01T18:03:07.343Z,19.88
2022-09-01T18:08:30.476Z,19.93
2022-09-01T18:13:56.766Z,19.88
2022-09-01T18:19:09.337Z,19.91
2022-09-01T18:24:17.573Z,19.89
2022-09-01T18:29:29.739Z,19.71
2022-09-01T18:34:49.911Z,19.73
2022-09-01T18:40:04.514Z,19.71
2022-09-01T18:45:19.427Z,19.73
2022-09-01T18:50:30.322Z,19.74
2022-09-01T18:55:43.344Z,19.76
2022-09-01T19:00:55.236Z,19.78
2022-09-01T19:06:18.245Z,19.79
2022-09-01T19:11:35.463Z,19.67
2022-09-01T19:16:56.414Z,19.53
2022-09-01T19:22:02.224Z,19.47
2022-09-01T19:27:12.394Z,19.46
2022-09-01T19:32:20.182Z,19.34
2022-09-01T19:37:26.319Z,19.28
2022-09-01T19:42:39.149Z,19.28
2022-09-01T19:47:50.458Z,19.39
2022-09-01T19:53:00.801Z,19.34
2022-09-01T19:58:07.828Z,19.35
2022-09-01T20:03:14.052Z,19.29
2022-09-01T20:08:25.909Z,19.25
2022-09-01T20:13:58.166Z,19.07
2022-09-01T20:19:10.404Z,19.29
2022-09-01T20:24:24.385Z,19.15
2022-09-01T20:29:36.256Z,19.07
2022-09-01T20:34:47.300Z,19.05
2022-09-01T20:40:01.897Z,19.18
2022-09-01T20:45:14.026Z,19.29
2022-09-01T20:50:20.112Z,19.19
2022-09-01T20:55:31.994Z,19.26
2022-09-01T21:00:47.515Z,19.20
2022-09-01T21:05:56.526Z,19.19
2022-09-01T21:11:13.875Z,19.21
2022-09-01T21:16:25.692Z,19.17
2022-09-01T21:21:40.044Z,19.04
2022-09-01T21:26:45.590Z,19.08
2022-09-01T21:31:50.060Z,19.24
2022-09-01T21:36:55.370Z,19.32
2022-09-01T21:42:01.382Z,19.39
2022-09-01T21:47:07.378Z,19.42
2022-09-01T21:52:11.440Z,19.46
2022-09-01T21:57:17.112Z,19.42
2022-09-01T22:02:21.490Z,19.40
2022-09-01T22:07:32.975Z,19.14
2022-09-01T22:12:38.930Z,18.80
2022-09-01T22:17:42.955Z,18.70
2022-09-01T22:22:47.486Z,18.61
2022-09-01T22:27:52.796Z,18.53
2022-09-01T22:32:56.793Z,18.36
2022-09-01T22:38:00.756Z,18.19
2022-09-01T22:43:06.196Z,18.21
2022-09-01T22:48:11.142Z,18.11
2022-09-01T22:53:17.509Z,18.16
2022-09-01T22:58:22.866Z,18.20
2022-09-01T23:03:29.315Z,18.19
2022-09-01T23:08:33.368Z,18.12
2022-09-01T23:13:39.363Z,18.19
2022-09-01T23:18:47.368Z,18.12
2022-09-01T23:23:58.266Z,18.04
2022-09-01T23:29:05.483Z,17.91
2022-09-01T23:34:10.478Z,17.83
2022-09-01T23:39:15.984Z,17.72
2022-09-01T23:44:21.859Z,17.53
2022-09-01T23:49:25.751Z,17.36
2022-09-01T23:54:29.698Z,17.32
2022-09-01T23:59:34.951Z,17.30
